Time;durP1;ratioP1;P1;durP2;ratioP2;P2;SDS_P1;SDS_P2;PMS_P1;PMS_P2;Temp;Humidity;BMP_temperature;BMP_pressure;BME280_temperature;BME280_humidity;BME280_pressure;Samples;Min_cycle;Max_cycle;Signal;HPM_P1;HPM_P2
2022/06/26 00:02:08;;;;;;;0.80;0.80;;;23.60;71.70;;;;;;5027146;28;20660;-75
2022/06/26 00:04:33;;;;;;;0.73;0.73;;;23.50;71.60;;;;;;5010478;28;20246;-75
2022/06/26 00:07:00;;;;;;;0.70;0.70;;;23.50;71.60;;;;;;5010400;28;20196;-75
2022/06/26 00:09:28;;;;;;;0.93;0.80;;;23.60;71.70;;;;;;5010650;28;20210;-75
2022/06/26 00:11:54;;;;;;;0.80;0.80;;;23.50;71.60;;;;;;5027161;28;20271;-75
2022/06/26 00:14:19;;;;;;;0.77;0.77;;;23.50;71.80;;;;;;5010505;28;20391;-75
2022/06/26 00:16:45;;;;;;;0.85;0.85;;;23.60;71.80;;;;;;5026980;28;20188;-75
2022/06/26 00:19:11;;;;;;;0.70;0.68;;;23.50;71.70;;;;;;5013410;28;20223;-75
2022/06/26 00:21:36;;;;;;;0.93;0.80;;;23.50;71.70;;;;;;5010019;28;20187;-75
2022/06/26 00:24:03;;;;;;;0.80;0.80;;;23.60;71.80;;;;;;5027063;28;20220;-75
2022/06/26 00:26:28;;;;;;;0.80;0.80;;;23.60;71.80;;;;;;5010803;28;20184;-75
2022/06/26 00:28:54;;;;;;;0.75;0.75;;;23.50;71.70;;;;;;5014303;28;20212;-75
2022/06/26 00:31:20;;;;;;;0.85;0.85;;;23.50;71.70;;;;;;5014796;28;20231;-76
2022/06/26 00:33:46;;;;;;;0.90;0.90;;;23.50;71.70;;;;;;5014069;28;20196;-75
2022/06/26 00:36:11;;;;;;;0.70;0.70;;;23.60;71.80;;;;;;5014250;28;20271;-75
2022/06/26 00:38:37;;;;;;;1.33;0.80;;;23.50;71.70;;;;;;5014098;28;20184;-75
2022/06/26 00:41:05;;;;;;;0.70;0.70;;;23.50;71.70;;;;;;5013401;28;20188;-75
2022/06/26 00:43:31;;;;;;;1.02;0.90;;;23.50;71.80;;;;;;5013753;28;20212;-76
2022/06/26 00:45:57;;;;;;;0.85;0.85;;;23.50;71.70;;;;;;5014017;28;20230;-75
2022/06/26 00:48:23;;;;;;;0.90;0.90;;;23.50;72.60;;;;;;5014024;28;20184;-75
2022/06/26 00:50:51;;;;;;;0.90;0.90;;;23.50;71.80;;;;;;5013151;28;20692;-75
2022/06/26 00:53:17;;;;;;;0.95;0.95;;;23.50;71.90;;;;;;5013871;28;20180;-75
2022/06/26 00:55:43;;;;;;;0.90;0.90;;;23.50;71.80;;;;;;5013710;28;20184;-76
2022/06/26 00:58:10;;;;;;;1.00;1.00;;;23.50;71.80;;;;;;5013597;28;20692;-75
2022/06/26 01:00:36;;;;;;;0.70;0.70;;;23.50;71.80;;;;;;5013057;28;20208;-76
2022/06/26 01:03:01;;;;;;;0.70;0.70;;;23.50;71.80;;;;;;5013459;28;20603;-75
2022/06/26 01:05:27;;;;;;;0.80;0.80;;;23.50;71.80;;;;;;5013707;28;20227;-75
2022/06/26 01:07:53;;;;;;;0.90;0.88;;;23.50;71.80;;;;;;5013245;28;20266;-75
2022/06/26 01:10:20;;;;;;;0.95;0.70;;;23.50;71.80;;;;;;5012669;28;20231;-75
2022/06/26 01:12:47;;;;;;;0.80;0.80;;;23.50;71.90;;;;;;5013535;28;20270;-75
2022/06/26 01:15:13;;;;;;;0.90;0.90;;;23.50;71.90;;;;;;5013688;28;20184;-75
2022/06/26 01:17:39;;;;;;;1.75;0.82;;;23.50;71.90;;;;;;5013344;28;20679;-75
2022/06/26 01:20:09;;;;;;;0.80;0.80;;;23.50;71.90;;;;;;5012703;28;20246;-75
2022/06/26 01:22:35;;;;;;;0.90;0.90;;;23.50;71.90;;;;;;5013070;28;20183;-75
2022/06/26 01:25:00;;;;;;;0.80;0.80;;;23.50;71.90;;;;;;5013261;28;20172;-75
2022/06/26 01:27:28;;;;;;;1.00;1.00;;;23.50;71.90;;;;;;5013097;28;20188;-75
2022/06/26 01:29:54;;;;;;;0.70;0.70;;;23.50;71.90;;;;;;5012708;28;20211;-75
2022/06/26 01:32:20;;;;;;;0.70;0.70;;;23.50;72.00;;;;;;5017680;28;20607;-75
2022/06/26 01:34:46;;;;;;;0.70;0.70;;;23.50;72.00;;;;;;5032946;28;20183;-75
2022/06/26 01:37:12;;;;;;;0.52;0.52;;;23.50;72.00;;;;;;5032843;28;20194;-75
2022/06/26 01:39:38;;;;;;;0.70;0.70;;;23.50;72.00;;;;;;5047588;28;20210;-75
2022/06/26 01:42:04;;;;;;;0.70;0.70;;;23.50;72.00;;;;;;5049435;28;20194;-76
2022/06/26 01:44:30;;;;;;;0.93;0.93;;;23.50;72.00;;;;;;5032490;28;20631;-75
2022/06/26 01:46:57;;;;;;;0.70;0.70;;;23.50;72.00;;;;;;5032689;28;20187;-75
2022/06/26 01:49:28;;;;;;;0.80;0.80;;;23.50;72.00;;;;;;5032499;28;20762;-74
2022/06/26 01:51:54;;;;;;;1.00;0.90;;;23.50;72.00;;;;;;5031923;28;20659;-75
2022/06/26 01:54:20;;;;;;;0.73;0.70;;;23.40;71.90;;;;;;5032437;28;20200;-75
2022/06/26 01:56:47;;;;;;;0.80;0.80;;;23.50;72.00;;;;;;5032405;28;20180;-75
2022/06/26 01:59:13;;;;;;;0.70;0.70;;;23.40;71.90;;;;;;5032618;28;20264;-75
2022/06/26 02:01:41;;;;;;;0.70;0.70;;;23.40;71.90;;;;;;5031679;28;20191;-75
2022/06/26 02:04:08;;;;;;;0.80;0.80;;;23.50;72.00;;;;;;5048805;28;20302;-75
2022/06/26 02:06:33;;;;;;;0.70;0.70;;;23.40;72.00;;;;;;5048327;28;20278;-75
2022/06/26 02:08:59;;;;;;;0.73;0.73;;;23.40;72.00;;;;;;5028797;28;20206;-75
2022/06/26 02:14:11;;;;;;;0.70;0.70;;;23.40;72.00;;;;;;5032028;28;20183;-75
2022/06/26 02:16:42;;;;;;;0.90;0.90;;;23.40;72.10;;;;;;5016395;28;20198;-75
2022/06/26 02:19:10;;;;;;;1.00;1.00;;;23.40;72.10;;;;;;5031742;28;20219;-76
2022/06/26 02:21:38;;;;;;;0.80;0.80;;;23.40;72.10;;;;;;5048218;28;20241;-78
2022/06/26 02:24:04;;;;;;;0.80;0.80;;;23.40;72.10;;;;;;5048334;28;20757;-74
2022/06/26 02:26:30;;;;;;;0.90;0.90;;;23.40;72.10;;;;;;5015465;28;20187;-75
2022/06/26 02:28:57;;;;;;;0.88;0.88;;;23.40;72.10;;;;;;5015193;28;20741;-75
2022/06/26 02:31:23;;;;;;;0.90;0.90;;;23.40;72.10;;;;;;5031061;28;20184;-75
2022/06/26 02:33:49;;;;;;;0.63;0.63;;;23.40;72.90;;;;;;5048217;28;20640;-75
2022/06/26 02:36:15;;;;;;;0.80;0.80;;;23.40;72.10;;;;;;5031139;28;20266;-75
2022/06/26 02:38:42;;;;;;;0.70;0.70;;;23.40;72.10;;;;;;5031408;28;20195;-76
2022/06/26 02:41:08;;;;;;;0.68;0.68;;;23.40;72.10;;;;;;5030972;28;20190;-75
2022/06/26 02:43:35;;;;;;;0.90;0.90;;;23.40;72.20;;;;;;5031344;28;20211;-77
2022/06/26 02:46:04;;;;;;;0.75;0.75;;;23.40;72.20;;;;;;5021622;28;20217;-75
2022/06/26 02:48:30;;;;;;;0.80;0.80;;;23.40;72.20;;;;;;5031427;28;20221;-75
2022/06/26 02:50:55;;;;;;;1.00;1.00;;;23.40;72.30;;;;;;5030484;28;20207;-75
2022/06/26 02:53:22;;;;;;;0.65;0.65;;;23.40;72.30;;;;;;5030869;28;20187;-75
2022/06/26 02:55:50;;;;;;;1.00;1.00;;;23.40;72.30;;;;;;5012905;28;20192;-75
2022/06/26 02:58:16;;;;;;;0.70;0.70;;;23.40;72.40;;;;;;5031346;28;20219;-75
2022/06/26 03:00:51;;;;;;;0.88;0.80;;;23.40;72.50;;;;;;5030610;28;20219;-74
2022/06/26 03:03:18;;;;;;;0.77;0.77;;;23.40;72.60;;;;;;5032382;28;20211;-76
2022/06/26 03:05:45;;;;;;;0.70;0.65;;;23.40;72.50;;;;;;5031207;28;20179;-75
2022/06/26 03:08:10;;;;;;;0.90;0.90;;;23.40;72.50;;;;;;5031920;28;20237;-75
2022/06/26 03:10:36;;;;;;;0.73;0.73;;;23.40;72.50;;;;;;5030601;28;20203;-75
2022/06/26 03:13:03;;;;;;;0.80;0.80;;;23.40;72.60;;;;;;5031170;28;20698;-74
2022/06/26 03:15:30;;;;;;;0.80;0.80;;;23.40;72.60;;;;;;5031722;28;20182;-75
2022/06/26 03:17:59;;;;;;;0.90;0.90;;;23.40;72.60;;;;;;5031019;28;20748;-75
2022/06/26 03:20:26;;;;;;;0.80;0.80;;;23.40;72.60;;;;;;5030180;28;20243;-75
2022/06/26 03:22:52;;;;;;;0.80;0.80;;;23.40;72.60;;;;;;5030762;28;20187;-75
2022/06/26 03:25:19;;;;;;;0.70;0.70;;;23.40;72.60;;;;;;5031188;28;20186;-75
2022/06/26 03:27:45;;;;;;;1.27;0.80;;;23.40;72.60;;;;;;5030945;28;20180;-75
2022/06/26 03:30:14;;;;;;;0.70;0.70;;;23.40;72.60;;;;;;5030384;28;20253;-75
2022/06/26 03:32:46;;;;;;;0.85;0.85;;;23.40;72.60;;;;;;5030729;28;20179;-74
2022/06/26 03:35:12;;;;;;;0.80;0.80;;;23.40;72.60;;;;;;5030712;28;20183;-75
2022/06/26 03:37:38;;;;;;;0.80;0.73;;;23.40;72.60;;;;;;5030710;28;20175;-75
2022/06/26 03:40:07;;;;;;;0.80;0.80;;;23.40;72.60;;;;;;5030170;28;20561;-75
2022/06/26 03:42:32;;;;;;;0.77;0.77;;;23.40;72.70;;;;;;5030681;28;20190;-75
2022/06/26 03:44:58;;;;;;;0.80;0.80;;;23.40;72.70;;;;;;5030624;28;20603;-75
2022/06/26 03:47:24;;;;;;;0.90;0.90;;;23.40;72.80;;;;;;5030602;28;20184;-75
2022/06/26 03:49:53;;;;;;;1.10;0.85;;;23.40;72.80;;;;;;5030009;28;20214;-75
2022/06/26 03:52:22;;;;;;;0.70;0.70;;;23.40;72.80;;;;;;5030736;28;20698;-75
2022/06/26 03:54:50;;;;;;;0.80;0.80;;;23.40;72.80;;;;;;5014147;28;20266;-75
2022/06/26 03:57:19;;;;;;;0.80;0.80;;;23.40;72.90;;;;;;5030309;28;20194;-75
2022/06/26 03:59:47;;;;;;;0.90;0.90;;;23.40;72.90;;;;;;5030448;28;20203;-75
2022/06/26 04:02:20;;;;;;;1.00;0.98;;;23.40;72.90;;;;;;5024190;28;20710;-74
2022/06/26 04:04:47;;;;;;;0.85;0.85;;;23.40;72.90;;;;;;5015002;28;20212;-75
2022/06/26 04:07:13;;;;;;;0.82;0.82;;;23.40;72.90;;;;;;5014177;28;20184;-75
2022/06/26 04:09:42;;;;;;;0.73;0.73;;;23.40;72.90;;;;;;5014545;28;20208;-75
2022/06/26 04:12:09;;;;;;;0.80;0.80;;;23.40;73.00;;;;;;5013971;28;20191;-75
2022/06/26 04:14:40;;;;;;;0.80;0.70;;;23.40;72.90;;;;;;5029563;28;20305;-75
2022/06/26 04:17:06;;;;;;;1.23;0.90;;;23.40;72.90;;;;;;5034485;28;20574;-75
2022/06/26 04:19:34;;;;;;;0.80;0.80;;;23.40;72.90;;;;;;5033911;28;20759;-75
2022/06/26 04:22:00;;;;;;;0.70;0.70;;;23.30;72.90;;;;;;5033802;28;20191;-76
2022/06/26 04:24:26;;;;;;;0.90;0.90;;;23.40;73.00;;;;;;5034090;28;20222;-75
2022/06/26 04:26:52;;;;;;;0.70;0.70;;;23.40;73.00;;;;;;5033962;28;20262;-75
2022/06/26 04:29:18;;;;;;;0.70;0.70;;;23.40;73.00;;;;;;5034075;28;20569;-75
2022/06/26 04:31:43;;;;;;;1.27;0.80;;;23.40;73.00;;;;;;5033463;28;20261;-75
2022/06/26 04:34:09;;;;;;;0.77;0.77;;;23.30;73.00;;;;;;5033980;28;20183;-75
2022/06/26 04:36:36;;;;;;;0.80;0.80;;;23.40;73.10;;;;;;5033835;28;20194;-75
2022/06/26 04:39:02;;;;;;;1.15;0.90;;;23.40;73.20;;;;;;5033790;28;20206;-75
2022/06/26 04:41:31;;;;;;;0.65;0.65;;;23.40;73.10;;;;;;5033470;28;20233;-75
2022/06/26 04:43:58;;;;;;;0.90;0.90;;;23.40;73.10;;;;;;5033892;28;20238;-75
2022/06/26 04:46:24;;;;;;;1.00;1.00;;;23.40;73.10;;;;;;5017219;28;20184;-75
2022/06/26 04:48:51;;;;;;;0.95;0.88;;;23.30;73.00;;;;;;5033571;28;20183;-75
2022/06/26 04:51:19;;;;;;;0.77;0.77;;;23.40;73.20;;;;;;5033194;28;20194;-77
2022/06/26 04:53:45;;;;;;;1.00;0.90;;;23.40;73.20;;;;;;5033675;28;20191;-75
2022/06/26 04:56:12;;;;;;;0.80;0.80;;;23.40;73.30;;;;;;5033545;28;20183;-75
2022/06/26 04:58:53;;;;;;;1.00;1.00;;;23.40;73.30;;;;;;5033648;28;20191;-75
2022/06/26 05:01:20;;;;;;;0.77;0.77;;;23.40;73.30;;;;;;5032946;28;20183;-75
2022/06/26 05:04:01;;;;;;;0.80;0.80;;;23.40;73.30;;;;;;5033527;28;20215;-75
2022/06/26 05:06:40;;;;;;;0.80;0.80;;;23.40;73.30;;;;;;5033132;28;20687;-75
2022/06/26 05:09:27;;;;;;;1.00;1.00;;;23.40;73.40;;;;;;5033268;28;20218;-75
2022/06/26 05:11:52;;;;;;;0.85;0.80;;;23.30;73.40;;;;;;5032713;28;20175;-75
2022/06/26 05:14:19;;;;;;;0.80;0.80;;;23.30;73.40;;;;;;5049768;28;20175;-76
2022/06/26 05:16:56;;;;;;;0.90;0.90;;;23.40;73.50;;;;;;5018269;28;20190;-77
2022/06/26 05:19:28;;;;;;;3.20;0.90;;;23.30;73.40;;;;;;5032863;28;20210;-75
2022/06/26 05:21:53;;;;;;;0.82;0.80;;;23.40;73.50;;;;;;5032519;28;20184;-75
2022/06/26 05:24:20;;;;;;;0.95;0.95;;;23.40;73.60;;;;;;5032912;28;20207;-75
2022/06/26 05:26:48;;;;;;;1.00;1.00;;;23.40;73.60;;;;;;5032911;28;20179;-75
2022/06/26 05:29:14;;;;;;;1.10;0.90;;;23.40;73.50;;;;;;5016307;28;20206;-75
2022/06/26 05:31:40;;;;;;;0.90;0.90;;;23.30;73.70;;;;;;5032320;28;20183;-75
2022/06/26 05:34:06;;;;;;;0.82;0.82;;;23.30;73.40;;;;;;5033016;28;20183;-75
2022/06/26 05:36:33;;;;;;;0.88;0.88;;;23.40;73.50;;;;;;5032635;28;20214;-75
2022/06/26 05:39:00;;;;;;;0.90;0.90;;;23.30;73.40;;;;;;5033083;28;20226;-75
2022/06/26 05:41:29;;;;;;;0.82;0.82;;;23.30;73.40;;;;;;5031618;28;20198;-75
2022/06/26 05:43:57;;;;;;;0.80;0.80;;;23.30;73.50;;;;;;5032687;28;20214;-76
2022/06/26 05:46:24;;;;;;;0.93;0.93;;;23.40;73.60;;;;;;5032607;28;20179;-75
2022/06/26 05:48:52;;;;;;;0.75;0.75;;;23.40;73.60;;;;;;5032950;28;20218;-75
2022/06/26 05:51:31;;;;;;;1.02;1.02;;;23.40;73.60;;;;;;5032203;28;20198;-75
2022/06/26 05:54:07;;;;;;;0.90;0.90;;;23.30;73.50;;;;;;5048989;28;20183;-75
2022/06/26 05:56:51;;;;;;;0.75;0.75;;;23.30;73.40;;;;;;5032681;28;20195;-75
2022/06/26 05:59:35;;;;;;;0.93;0.70;;;23.40;73.60;;;;;;5033803;28;20265;-75
2022/06/26 06:02:11;;;;;;;0.90;0.90;;;23.30;73.50;;;;;;5031980;28;20186;-75
2022/06/26 06:04:38;;;;;;;0.93;0.93;;;23.40;73.70;;;;;;5032161;28;20222;-75
2022/06/26 06:07:05;;;;;;;0.80;0.80;;;23.40;73.70;;;;;;5031917;28;20225;-75
2022/06/26 06:09:32;;;;;;;0.85;0.85;;;23.40;73.70;;;;;;5017798;28;20212;-75
2022/06/26 06:11:58;;;;;;;0.90;0.90;;;23.30;73.60;;;;;;5011972;28;20184;-75
2022/06/26 06:14:24;;;;;;;0.90;0.90;;;23.40;73.70;;;;;;4998304;28;20180;-75
2022/06/26 06:16:51;;;;;;;0.95;0.95;;;23.30;73.70;;;;;;5012342;28;20291;-75
2022/06/26 06:19:16;;;;;;;0.80;0.80;;;23.40;73.80;;;;;;5012006;28;20239;-75
2022/06/26 06:21:45;;;;;;;0.75;0.75;;;23.30;73.70;;;;;;5011769;28;20250;-75
2022/06/26 06:24:10;;;;;;;0.77;0.77;;;23.40;73.80;;;;;;4995386;28;20224;-75
2022/06/26 06:26:37;;;;;;;1.05;1.05;;;23.30;73.60;;;;;;5011817;28;20207;-75
2022/06/26 06:29:12;;;;;;;0.82;0.82;;;23.40;73.80;;;;;;4996884;28;20203;-75
2022/06/26 06:31:38;;;;;;;0.70;0.70;;;23.30;73.70;;;;;;5011697;28;20267;-75
2022/06/26 06:34:06;;;;;;;1.02;0.95;;;23.40;73.90;;;;;;4996179;28;20192;-75
2022/06/26 06:36:32;;;;;;;0.80;0.80;;;23.40;73.90;;;;;;5011971;28;20187;-74
2022/06/26 06:39:00;;;;;;;0.80;0.80;;;23.30;73.80;;;;;;4995679;28;20214;-75
2022/06/26 06:41:26;;;;;;;0.77;0.77;;;23.40;73.90;;;;;;4994971;28;20678;-74
2022/06/26 06:44:04;;;;;;;0.70;0.60;;;23.30;73.90;;;;;;5012094;28;20211;-75
2022/06/26 06:46:30;;;;;;;1.20;1.00;;;23.40;74.10;;;;;;5012006;28;20191;-75
2022/06/26 06:49:04;;;;;;;0.90;0.90;;;23.40;74.00;;;;;;4996515;28;20200;-75
2022/06/26 06:51:33;;;;;;;1.00;0.90;;;23.40;74.10;;;;;;5011249;28;20176;-77
2022/06/26 06:54:01;;;;;;;1.48;0.90;;;23.30;74.00;;;;;;4995535;28;20203;-75
2022/06/26 06:56:29;;;;;;;0.80;0.80;;;23.30;74.10;;;;;;5011788;28;20192;-75
2022/06/26 06:58:54;;;;;;;0.90;0.90;;;23.40;74.10;;;;;;4995359;28;20218;-75
2022/06/26 07:01:20;;;;;;;1.10;1.00;;;23.30;74.10;;;;;;4994978;28;20257;-75
2022/06/26 07:03:46;;;;;;;1.00;1.00;;;23.30;74.10;;;;;;5011869;28;20212;-75
2022/06/26 07:06:12;;;;;;;1.00;1.00;;;23.40;74.20;;;;;;5011229;28;20195;-75
2022/06/26 07:08:38;;;;;;;0.90;0.90;;;23.30;75.00;;;;;;5011298;28;20275;-75
2022/06/26 07:11:03;;;;;;;1.00;1.00;;;23.30;74.10;;;;;;5011000;28;20188;-74
2022/06/26 07:13:29;;;;;;;0.80;0.80;;;23.40;74.20;;;;;;5011603;28;20194;-75
2022/06/26 07:15:56;;;;;;;0.93;0.93;;;23.40;74.90;;;;;;5011215;28;20192;-75
2022/06/26 07:18:24;;;;;;;0.80;0.80;;;23.40;74.00;;;;;;4995280;28;20183;-75
2022/06/26 07:20:53;;;;;;;0.73;0.73;;;23.40;74.00;;;;;;5010639;28;20216;-75
2022/06/26 07:23:18;;;;;;;0.70;0.70;;;23.30;74.10;;;;;;5011176;28;20723;-75
2022/06/26 07:25:50;;;;;;;0.93;0.80;;;23.40;74.10;;;;;;4995721;28;20242;-75
2022/06/26 07:28:18;;;;;;;0.82;0.82;;;23.30;74.10;;;;;;5011288;28;20275;-75
2022/06/26 07:30:45;;;;;;;0.80;0.80;;;23.40;74.20;;;;;;4994619;28;20203;-75
2022/06/26 07:35:57;;;;;;;0.80;0.80;;;23.40;74.20;;;;;;5010774;28;20234;-75
2022/06/26 07:38:23;;;;;;;1.02;1.02;;;23.30;74.20;;;;;;5010447;28;20288;-75
2022/06/26 07:40:49;;;;;;;0.80;0.80;;;23.30;74.20;;;;;;4994255;28;20330;-75
2022/06/26 07:43:15;;;;;;;0.95;0.80;;;23.40;74.30;;;;;;5010816;28;20215;-74
2022/06/26 07:45:41;;;;;;;0.90;0.90;;;23.30;74.20;;;;;;5012497;28;20184;-75
2022/06/26 07:48:10;;;;;;;0.93;0.77;;;23.30;74.20;;;;;;5014568;28;20190;-75
2022/06/26 07:50:38;;;;;;;0.85;0.85;;;23.40;74.30;;;;;;5046695;28;20756;-75
2022/06/26 07:53:04;;;;;;;1.20;1.10;;;23.40;74.40;;;;;;5031790;28;20183;-75
2022/06/26 07:55:30;;;;;;;0.75;0.75;;;23.30;74.50;;;;;;5030211;28;20179;-77
2022/06/26 07:57:56;;;;;;;1.00;1.00;;;23.40;74.60;;;;;;5030608;28;20192;-75
2022/06/26 08:00:22;;;;;;;0.98;0.98;;;23.40;74.50;;;;;;5013324;28;20264;-75
2022/06/26 08:02:48;;;;;;;1.05;1.05;;;23.40;74.60;;;;;;4997611;28;20192;-75
2022/06/26 08:05:14;;;;;;;1.17;1.15;;;23.40;74.40;;;;;;5013080;28;20186;-75
2022/06/26 08:07:39;;;;;;;1.02;1.02;;;23.40;74.30;;;;;;5010503;28;20192;-75
2022/06/26 08:10:06;;;;;;;0.90;0.90;;;23.40;74.30;;;;;;5010901;28;20204;-75
2022/06/26 08:12:33;;;;;;;1.08;1.08;;;23.50;74.40;;;;;;5010309;28;20180;-75
2022/06/26 08:14:58;;;;;;;1.10;1.10;;;23.40;74.20;;;;;;5010819;28;20199;-75
2022/06/26 08:17:24;;;;;;;0.90;0.90;;;23.50;74.30;;;;;;5011859;28;20184;-75
2022/06/26 08:19:50;;;;;;;1.00;1.00;;;23.50;74.30;;;;;;5010866;28;20227;-75
2022/06/26 08:22:16;;;;;;;0.90;0.90;;;23.50;74.20;;;;;;5009979;28;20196;-75
2022/06/26 08:24:41;;;;;;;1.15;1.00;;;23.50;74.10;;;;;;4994129;28;20212;-75
2022/06/26 08:27:10;;;;;;;0.90;0.90;;;23.50;74.00;;;;;;5010366;28;20239;-75
2022/06/26 08:29:38;;;;;;;1.00;1.00;;;23.50;74.00;;;;;;5010449;28;20254;-76
2022/06/26 08:32:05;;;;;;;1.23;1.20;;;23.50;73.90;;;;;;5010060;28;20216;-75
2022/06/26 08:34:31;;;;;;;0.90;0.90;;;23.50;73.80;;;;;;5010451;28;20278;-74
2022/06/26 08:36:57;;;;;;;1.15;1.05;;;23.50;73.90;;;;;;5011533;28;20204;-75
2022/06/26 08:39:24;;;;;;;1.10;1.10;;;23.50;73.80;;;;;;5010224;28;20706;-75
2022/06/26 08:41:53;;;;;;;1.13;1.13;;;23.60;73.80;;;;;;5009926;28;20184;-75
2022/06/26 08:44:22;;;;;;;1.38;1.27;;;23.60;73.70;;;;;;5010407;28;20220;-75
2022/06/26 08:46:48;;;;;;;1.63;0.98;;;23.60;73.70;;;;;;5010639;28;20180;-75
2022/06/26 08:49:23;;;;;;;1.20;1.10;;;23.60;73.80;;;;;;5013121;28;20261;-75
2022/06/26 08:51:51;;;;;;;1.00;1.00;;;23.60;73.50;;;;;;5014519;28;20215;-77
2022/06/26 08:54:20;;;;;;;1.10;1.00;;;23.60;73.40;;;;;;5013823;28;20181;-76
2022/06/26 08:56:48;;;;;;;1.30;0.98;;;23.70;73.60;;;;;;5013800;28;20188;-75
2022/06/26 08:59:18;;;;;;;1.20;1.20;;;23.70;73.50;;;;;;5013619;28;20226;-75
2022/06/26 09:01:45;;;;;;;0.93;0.93;;;23.60;73.30;;;;;;5013346;28;20259;-75
2022/06/26 09:04:12;;;;;;;2.00;1.10;;;23.70;73.40;;;;;;5013629;28;20691;-75
2022/06/26 09:06:42;;;;;;;0.95;0.95;;;23.70;73.40;;;;;;5013107;28;20184;-75
2022/06/26 09:09:27;;;;;;;0.93;0.93;;;23.70;73.50;;;;;;5013501;28;20208;-75
2022/06/26 09:11:59;;;;;;;1.08;1.08;;;23.70;73.50;;;;;;5013376;28;20671;-75
2022/06/26 09:14:27;;;;;;;1.20;1.13;;;23.70;73.50;;;;;;5014245;28;20243;-75
2022/06/26 09:16:54;;;;;;;0.90;0.90;;;23.70;73.50;;;;;;5013859;28;20199;-75
2022/06/26 09:19:28;;;;;;;2.42;0.90;;;23.70;73.60;;;;;;5015015;28;20247;-75
2022/06/26 09:22:24;;;;;;;0.70;0.70;;;23.70;73.60;;;;;;5013374;28;20176;-75
2022/06/26 09:24:57;;;;;;;1.00;1.00;;;23.70;73.70;;;;;;4985255;28;20232;-75
2022/06/26 09:27:24;;;;;;;0.73;0.73;;;23.70;73.70;;;;;;5013924;28;20172;-75
2022/06/26 09:29:56;;;;;;;1.00;1.00;;;23.70;73.60;;;;;;5013858;28;20215;-75
2022/06/26 09:32:24;;;;;;;0.57;0.57;;;23.70;73.70;;;;;;5013243;28;20192;-75
2022/06/26 09:34:54;;;;;;;0.70;0.70;;;23.70;73.80;;;;;;5014750;28;20181;-75
2022/06/26 09:37:22;;;;;;;0.98;0.82;;;23.70;74.00;;;;;;5013562;28;20184;-74
2022/06/26 09:39:48;;;;;;;0.82;0.82;;;23.70;74.80;;;;;;5013511;28;20203;-75
2022/06/26 09:42:18;;;;;;;0.77;0.77;;;23.70;74.00;;;;;;5012934;28;20214;-75
2022/06/26 09:44:55;;;;;;;0.93;0.93;;;23.70;74.00;;;;;;5013159;28;20223;-75
2022/06/26 09:47:31;;;;;;;0.90;0.90;;;23.70;73.90;;;;;;5013658;28;20619;-74
2022/06/26 09:50:04;;;;;;;0.80;0.80;;;23.70;73.90;;;;;;5013409;28;20223;-75
2022/06/26 09:52:32;;;;;;;1.08;0.98;;;23.70;73.80;;;;;;5030262;28;20179;-74
2022/06/26 09:55:00;;;;;;;0.80;0.80;;;23.80;74.00;;;;;;5032929;28;20283;-75
2022/06/26 09:57:28;;;;;;;0.95;0.90;;;23.70;73.90;;;;;;5032793;28;20270;-74
2022/06/26 09:59:58;;;;;;;0.85;0.85;;;23.70;73.90;;;;;;5031962;28;20203;-75
2022/06/26 10:08:06;;;;;;;0.70;0.70;;;23.70;73.90;;;;;;5032616;28;20186;-75
2022/06/26 10:10:34;;;;;;;0.70;0.70;;;23.70;73.90;;;;;;5032038;28;20206;-75
2022/06/26 10:13:10;;;;;;;1.00;1.00;;;23.70;73.90;;;;;;5033917;28;20207;-75
2022/06/26 10:16:00;;;;;;;0.90;0.90;;;23.80;74.10;;;;;;5032569;28;20171;-75
2022/06/26 10:18:29;;;;;;;0.80;0.80;;;23.80;74.00;;;;;;5032437;28;20547;-75
2022/06/26 10:21:05;;;;;;;1.23;1.00;;;23.70;73.90;;;;;;5031885;28;20203;-75
2022/06/26 10:23:37;;;;;;;0.70;0.70;;;23.80;74.00;;;;;;5032712;28;20211;-75
2022/06/26 10:26:21;;;;;;;0.80;0.80;;;23.80;74.10;;;;;;5032750;28;20182;-74
2022/06/26 10:29:09;;;;;;;0.80;0.80;;;23.70;74.00;;;;;;5032202;28;20175;-75
2022/06/26 10:31:48;;;;;;;0.80;0.80;;;23.70;73.90;;;;;;5031808;28;20191;-75
2022/06/26 10:34:24;;;;;;;0.90;0.90;;;23.70;74.00;;;;;;5032209;28;20186;-75
2022/06/26 10:37:09;;;;;;;0.82;0.82;;;23.70;74.00;;;;;;5032543;28;20182;-75
2022/06/26 10:39:49;;;;;;;0.80;0.80;;;23.80;74.00;;;;;;5032540;28;20210;-75
2022/06/26 10:45:14;;;;;;;0.77;0.77;;;23.80;74.10;;;;;;5032000;28;20733;-74
2022/06/26 10:47:48;;;;;;;0.90;0.90;;;23.80;74.00;;;;;;5032208;28;20229;-75
2022/06/26 10:50:28;;;;;;;0.80;0.80;;;23.80;74.00;;;;;;5032474;28;20213;-75
2022/06/26 10:53:21;;;;;;;0.80;0.80;;;23.80;74.00;;;;;;5031110;28;20191;-75
2022/06/26 10:55:58;;;;;;;0.73;0.73;;;23.80;74.00;;;;;;5027565;28;20294;-75
2022/06/26 10:58:45;;;;;;;0.88;0.88;;;23.80;74.20;;;;;;5033070;28;20179;-76
2022/06/26 11:01:12;;;;;;;0.80;0.80;;;23.80;74.10;;;;;;5031278;28;20171;-75
2022/06/26 11:03:41;;;;;;;0.77;0.77;;;23.80;74.10;;;;;;5031813;28;20211;-76
2022/06/26 11:06:08;;;;;;;0.90;0.90;;;23.80;74.20;;;;;;5031500;28;20237;-75
2022/06/26 11:08:45;;;;;;;0.70;0.70;;;23.80;74.00;;;;;;5031657;28;20176;-75
2022/06/26 11:11:17;;;;;;;0.90;0.90;;;23.80;74.00;;;;;;5014604;28;20179;-76
2022/06/26 11:14:08;;;;;;;0.85;0.85;;;23.80;74.00;;;;;;5031592;28;20187;-75
2022/06/26 11:16:43;;;;;;;0.70;0.70;;;23.80;74.10;;;;;;5031448;28;20191;-75
2022/06/26 11:19:30;;;;;;;0.80;0.80;;;23.80;74.10;;;;;;5031416;28;20230;-75
2022/06/26 11:22:11;;;;;;;0.85;0.85;;;23.80;74.20;;;;;;5031177;28;20214;-75
2022/06/26 11:24:52;;;;;;;0.80;0.80;;;23.80;74.20;;;;;;5031369;28;20210;-75
2022/06/26 11:27:26;;;;;;;0.90;0.90;;;23.80;74.20;;;;;;5031395;28;20183;-76
2022/06/26 11:29:52;;;;;;;1.02;0.90;;;23.80;74.20;;;;;;5031385;28;20203;-76
2022/06/26 11:32:23;;;;;;;0.70;0.70;;;23.80;74.20;;;;;;5032364;28;20183;-74
2022/06/26 11:34:51;;;;;;;0.80;0.80;;;23.80;74.00;;;;;;5031393;28;20735;-75
2022/06/26 11:37:30;;;;;;;0.55;0.55;;;23.80;74.00;;;;;;5031506;28;20187;-75
2022/06/26 11:39:56;;;;;;;0.90;0.90;;;23.80;73.90;;;;;;5031121;28;20261;-75
2022/06/26 11:42:24;;;;;;;0.80;0.80;;;23.80;74.00;;;;;;5014320;28;20195;-74
2022/06/26 11:44:55;;;;;;;0.77;0.77;;;23.80;73.90;;;;;;5032309;28;20578;-75
2022/06/26 11:47:22;;;;;;;0.70;0.70;;;23.80;74.10;;;;;;5031093;28;20183;-75
2022/06/26 11:49:49;;;;;;;1.00;1.00;;;23.80;74.10;;;;;;5031277;28;20247;-75
2022/06/26 11:52:16;;;;;;;0.80;0.80;;;23.80;74.10;;;;;;5031846;28;20172;-76
2022/06/26 11:54:43;;;;;;;0.80;0.80;;;23.90;74.30;;;;;;5030796;28;20588;-75
2022/06/26 11:57:11;;;;;;;0.75;0.75;;;23.80;74.10;;;;;;5031184;28;20190;-75
2022/06/26 11:59:42;;;;;;;0.60;0.60;;;23.80;74.50;;;;;;5030750;28;20207;-75
2022/06/26 12:02:28;;;;;;;0.90;0.90;;;23.80;74.30;;;;;;5030492;28;20706;-75
2022/06/26 12:05:02;;;;;;;0.70;0.70;;;23.80;74.40;;;;;;5014171;28;20238;-75
2022/06/26 12:07:47;;;;;;;0.75;0.75;;;23.80;74.60;;;;;;5030699;28;20201;-77
2022/06/26 12:10:37;;;;;;;0.80;0.80;;;23.80;74.60;;;;;;5031321;28;20202;-75
2022/06/26 12:13:04;;;;;;;0.80;0.80;;;23.80;74.70;;;;;;5030130;28;20202;-75
2022/06/26 12:15:34;;;;;;;0.73;0.70;;;23.80;75.00;;;;;;5011449;28;20275;-75
2022/06/26 12:18:04;;;;;;;0.95;0.90;;;23.80;75.20;;;;;;5011078;28;20279;-77
2022/06/26 12:20:39;;;;;;;1.02;0.85;;;23.80;75.20;;;;;;5010989;28;20302;-75
2022/06/26 12:23:07;;;;;;;0.63;0.63;;;23.80;75.20;;;;;;5012422;28;20180;-75
2022/06/26 12:25:40;;;;;;;0.88;0.88;;;23.80;75.10;;;;;;5014765;28;20188;-75
2022/06/26 12:28:06;;;;;;;0.90;0.90;;;23.80;75.10;;;;;;5014870;28;20191;-75
2022/06/26 12:30:35;;;;;;;0.73;0.73;;;23.80;75.00;;;;;;5014953;28;20294;-75
2022/06/26 12:33:04;;;;;;;0.80;0.80;;;23.80;75.00;;;;;;5014463;28;20196;-76
2022/06/26 12:35:32;;;;;;;0.80;0.80;;;23.80;74.80;;;;;;5014722;28;20263;-75
2022/06/26 12:37:59;;;;;;;0.80;0.80;;;23.80;75.00;;;;;;5031267;28;20230;-75
2022/06/26 12:40:25;;;;;;;0.82;0.82;;;23.80;74.90;;;;;;5014474;28;20204;-75
2022/06/26 12:42:52;;;;;;;0.70;0.70;;;23.90;75.30;;;;;;5014319;28;20259;-75
2022/06/26 12:45:18;;;;;;;0.70;0.70;;;23.80;75.10;;;;;;5014625;28;20211;-75
2022/06/26 12:47:44;;;;;;;0.60;0.60;;;23.80;75.30;;;;;;5014485;28;20188;-75
2022/06/26 12:50:13;;;;;;;0.70;0.70;;;23.80;75.40;;;;;;5014434;28;20230;-76
2022/06/26 12:52:39;;;;;;;0.82;0.82;;;23.80;75.40;;;;;;5013934;28;20184;-76
2022/06/26 12:55:08;;;;;;;0.65;0.65;;;23.80;75.30;;;;;;5014108;28;20206;-73
2022/06/26 12:57:34;;;;;;;0.80;0.80;;;23.80;75.50;;;;;;5014314;28;20663;-75
2022/06/26 13:00:02;;;;;;;0.65;0.65;;;23.80;75.40;;;;;;5014290;28;20683;-75
2022/06/26 13:02:28;;;;;;;0.90;0.90;;;23.90;75.50;;;;;;5013630;28;20664;-75
2022/06/26 13:04:53;;;;;;;0.60;0.60;;;23.90;75.50;;;;;;5014093;28;20204;-75
2022/06/26 13:07:20;;;;;;;0.70;0.70;;;23.90;75.40;;;;;;5013938;28;20219;-75
2022/06/26 13:09:47;;;;;;;0.80;0.80;;;23.80;75.50;;;;;;5014360;28;20232;-76
2022/06/26 13:12:13;;;;;;;0.90;0.90;;;23.80;75.30;;;;;;5013444;28;20210;-75